sensor_id;sensor_type;location;lat;lon;timestamp;P1;durP1;ratioP1;P2;durP2;ratioP2
45039;SDS011;30778;53.574;7.770;2022-12-04T00:00:09;29.73;;;10.70;;
45039;SDS011;30778;53.574;7.770;2022-12-04T00:02:36;30.90;;;11.18;;
45039;SDS011;30778;53.574;7.770;2022-12-04T00:05:02;29.15;;;11.18;;
45039;SDS011;30778;53.574;7.770;2022-12-04T00:07:28;24.17;;;9.40;;
45039;SDS011;30778;53.574;7.770;2022-12-04T00:09:53;26.17;;;11.18;;
45039;SDS011;30778;53.574;7.770;2022-12-04T00:12:19;21.88;;;9.77;;
45039;SDS011;30778;53.574;7.770;2022-12-04T00:14:44;25.73;;;9.73;;
45039;SDS011;30778;53.574;7.770;2022-12-04T00:17:10;28.45;;;10.15;;
45039;SDS011;30778;53.574;7.770;2022-12-04T00:19:36;35.97;;;11.98;;
45039;SDS011;30778;53.574;7.770;2022-12-04T00:22:01;32.35;;;11.07;;
45039;SDS011;30778;53.574;7.770;2022-12-04T00:24:26;26.95;;;10.68;;
45039;SDS011;30778;53.574;7.770;2022-12-04T00:26:52;34.70;;;12.38;;
45039;SDS011;30778;53.574;7.770;2022-12-04T00:29:18;22.48;;;9.68;;
45039;SDS011;30778;53.574;7.770;2022-12-04T00:31:43;34.28;;;12.52;;
45039;SDS011;30778;53.574;7.770;2022-12-04T00:34:09;27.30;;;9.98;;
45039;SDS011;30778;53.574;7.770;2022-12-04T00:36:34;26.80;;;9.57;;
45039;SDS011;30778;53.574;7.770;2022-12-04T00:39:00;27.80;;;10.68;;
45039;SDS011;30778;53.574;7.770;2022-12-04T00:41:26;34.15;;;10.75;;
45039;SDS011;30778;53.574;7.770;2022-12-04T00:43:53;22.80;;;9.88;;
45039;SDS011;30778;53.574;7.770;2022-12-04T00:46:19;33.25;;;10.63;;
45039;SDS011;30778;53.574;7.770;2022-12-04T00:48:46;30.45;;;11.43;;
45039;SDS011;30778;53.574;7.770;2022-12-04T00:51:16;24.60;;;10.40;;
45039;SDS011;30778;53.574;7.770;2022-12-04T00:53:43;21.85;;;8.63;;
45039;SDS011;30778;53.574;7.770;2022-12-04T00:56:10;28.63;;;11.63;;
45039;SDS011;30778;53.574;7.770;2022-12-04T00:58:37;30.90;;;11.50;;
45039;SDS011;30778;53.574;7.770;2022-12-04T01:01:04;25.50;;;9.90;;
45039;SDS011;30778;53.574;7.770;2022-12-04T01:03:31;24.40;;;10.43;;
45039;SDS011;30778;53.574;7.770;2022-12-04T01:05:57;29.27;;;9.52;;
45039;SDS011;30778;53.574;7.770;2022-12-04T01:08:23;34.38;;;12.27;;
45039;SDS011;30778;53.574;7.770;2022-12-04T01:10:49;24.77;;;10.93;;
45039;SDS011;30778;53.574;7.770;2022-12-04T01:13:15;27.23;;;11.00;;
45039;SDS011;30778;53.574;7.770;2022-12-04T01:15:41;32.00;;;12.30;;
45039;SDS011;30778;53.574;7.770;2022-12-04T01:18:08;41.75;;;13.45;;
45039;SDS011;30778;53.574;7.770;2022-12-04T01:20:35;40.03;;;13.98;;
45039;SDS011;30778;53.574;7.770;2022-12-04T01:23:00;32.92;;;11.57;;
45039;SDS011;30778;53.574;7.770;2022-12-04T01:25:26;33.70;;;13.70;;
45039;SDS011;30778;53.574;7.770;2022-12-04T01:27:51;31.90;;;12.20;;
45039;SDS011;30778;53.574;7.770;2022-12-04T01:30:17;38.13;;;14.20;;
45039;SDS011;30778;53.574;7.770;2022-12-04T01:32:42;30.00;;;14.23;;
45039;SDS011;30778;53.574;7.770;2022-12-04T01:35:08;44.20;;;15.00;;
45039;SDS011;30778;53.574;7.770;2022-12-04T01:37:33;40.55;;;14.88;;
45039;SDS011;30778;53.574;7.770;2022-12-04T01:39:59;41.78;;;13.85;;
45039;SDS011;30778;53.574;7.770;2022-12-04T01:42:24;31.77;;;13.23;;
45039;SDS011;30778;53.574;7.770;2022-12-04T01:47:53;37.55;;;14.13;;
45039;SDS011;30778;53.574;7.770;2022-12-04T01:50:22;33.38;;;12.57;;
45039;SDS011;30778;53.574;7.770;2022-12-04T01:52:48;35.28;;;15.10;;
45039;SDS011;30778;53.574;7.770;2022-12-04T01:55:13;33.55;;;13.57;;
45039;SDS011;30778;53.574;7.770;2022-12-04T01:57:39;42.67;;;15.10;;
45039;SDS011;30778;53.574;7.770;2022-12-04T02:00:06;32.05;;;14.55;;
45039;SDS011;30778;53.574;7.770;2022-12-04T02:02:36;38.22;;;15.68;;
45039;SDS011;30778;53.574;7.770;2022-12-04T02:05:09;36.28;;;13.88;;
45039;SDS011;30778;53.574;7.770;2022-12-04T02:07:36;40.13;;;14.77;;
45039;SDS011;30778;53.574;7.770;2022-12-04T02:10:04;38.22;;;13.15;;
45039;SDS011;30778;53.574;7.770;2022-12-04T02:27:02;41.97;;;14.60;;
45039;SDS011;30778;53.574;7.770;2022-12-04T02:29:34;47.45;;;16.65;;
45039;SDS011;30778;53.574;7.770;2022-12-04T02:34:58;39.17;;;14.57;;
45039;SDS011;30778;53.574;7.770;2022-12-04T02:37:39;33.38;;;14.18;;
45039;SDS011;30778;53.574;7.770;2022-12-04T02:40:18;38.38;;;13.88;;
45039;SDS011;30778;53.574;7.770;2022-12-04T02:42:54;38.38;;;15.60;;
45039;SDS011;30778;53.574;7.770;2022-12-04T02:45:25;34.25;;;13.77;;
45039;SDS011;30778;53.574;7.770;2022-12-04T02:47:56;40.97;;;15.50;;
45039;SDS011;30778;53.574;7.770;2022-12-04T02:50:25;36.35;;;14.30;;
45039;SDS011;30778;53.574;7.770;2022-12-04T02:52:59;42.38;;;14.23;;
45039;SDS011;30778;53.574;7.770;2022-12-04T02:55:30;41.85;;;14.70;;
45039;SDS011;30778;53.574;7.770;2022-12-04T02:58:02;43.63;;;14.40;;
45039;SDS011;30778;53.574;7.770;2022-12-04T03:00:32;38.47;;;14.07;;
45039;SDS011;30778;53.574;7.770;2022-12-04T03:03:03;42.92;;;16.10;;
45039;SDS011;30778;53.574;7.770;2022-12-04T03:05:34;40.60;;;14.38;;
45039;SDS011;30778;53.574;7.770;2022-12-04T03:08:05;33.08;;;15.27;;
45039;SDS011;30778;53.574;7.770;2022-12-04T03:10:37;40.45;;;16.27;;
45039;SDS011;30778;53.574;7.770;2022-12-04T03:13:14;40.10;;;16.30;;
45039;SDS011;30778;53.574;7.770;2022-12-04T03:15:45;40.45;;;15.93;;
45039;SDS011;30778;53.574;7.770;2022-12-04T03:18:20;49.10;;;16.52;;
45039;SDS011;30778;53.574;7.770;2022-12-04T03:20:52;36.20;;;15.13;;
45039;SDS011;30778;53.574;7.770;2022-12-04T03:23:25;44.35;;;13.77;;
45039;SDS011;30778;53.574;7.770;2022-12-04T03:28:26;44.55;;;16.33;;
45039;SDS011;30778;53.574;7.770;2022-12-04T03:31:01;43.42;;;15.40;;
45039;SDS011;30778;53.574;7.770;2022-12-04T03:33:38;40.17;;;14.48;;
45039;SDS011;30778;53.574;7.770;2022-12-04T03:39:16;35.67;;;13.43;;
45039;SDS011;30778;53.574;7.770;2022-12-04T03:41:54;39.70;;;15.15;;
45039;SDS011;30778;53.574;7.770;2022-12-04T03:44:22;37.85;;;14.70;;
45039;SDS011;30778;53.574;7.770;2022-12-04T03:47:15;34.38;;;14.27;;
45039;SDS011;30778;53.574;7.770;2022-12-04T03:49:56;38.95;;;14.55;;
45039;SDS011;30778;53.574;7.770;2022-12-04T03:52:33;41.28;;;15.00;;
45039;SDS011;30778;53.574;7.770;2022-12-04T03:55:07;35.83;;;12.88;;
45039;SDS011;30778;53.574;7.770;2022-12-04T03:57:40;38.53;;;15.18;;
45039;SDS011;30778;53.574;7.770;2022-12-04T04:00:10;36.45;;;14.85;;
45039;SDS011;30778;53.574;7.770;2022-12-04T04:02:49;38.90;;;14.20;;
45039;SDS011;30778;53.574;7.770;2022-12-04T04:05:19;43.03;;;15.50;;
45039;SDS011;30778;53.574;7.770;2022-12-04T04:07:47;36.78;;;14.23;;
45039;SDS011;30778;53.574;7.770;2022-12-04T04:10:18;36.35;;;14.45;;
45039;SDS011;30778;53.574;7.770;2022-12-04T04:12:48;40.08;;;16.05;;
45039;SDS011;30778;53.574;7.770;2022-12-04T04:15:36;43.65;;;17.02;;
45039;SDS011;30778;53.574;7.770;2022-12-04T04:18:27;39.40;;;15.25;;
45039;SDS011;30778;53.574;7.770;2022-12-04T04:21:12;46.47;;;17.65;;
45039;SDS011;30778;53.574;7.770;2022-12-04T04:23:59;43.30;;;16.77;;
45039;SDS011;30778;53.574;7.770;2022-12-04T04:26:43;50.88;;;14.80;;
45039;SDS011;30778;53.574;7.770;2022-12-04T04:29:12;44.92;;;15.90;;
45039;SDS011;30778;53.574;7.770;2022-12-04T04:31:58;43.00;;;16.95;;
45039;SDS011;30778;53.574;7.770;2022-12-04T04:34:47;39.10;;;15.65;;
45039;SDS011;30778;53.574;7.770;2022-12-04T04:40:08;36.03;;;15.93;;
45039;SDS011;30778;53.574;7.770;2022-12-04T04:43:06;43.47;;;15.43;;
45039;SDS011;30778;53.574;7.770;2022-12-04T04:45:53;47.17;;;16.77;;
45039;SDS011;30778;53.574;7.770;2022-12-04T04:48:39;42.15;;;17.77;;
45039;SDS011;30778;53.574;7.770;2022-12-04T04:51:09;42.13;;;15.30;;
45039;SDS011;30778;53.574;7.770;2022-12-04T04:53:41;41.85;;;15.40;;
45039;SDS011;30778;53.574;7.770;2022-12-04T04:56:12;45.47;;;17.73;;
45039;SDS011;30778;53.574;7.770;2022-12-04T04:58:39;37.05;;;14.90;;
45039;SDS011;30778;53.574;7.770;2022-12-04T05:01:10;39.22;;;16.00;;
45039;SDS011;30778;53.574;7.770;2022-12-04T05:03:38;39.75;;;15.85;;
45039;SDS011;30778;53.574;7.770;2022-12-04T05:06:04;46.13;;;17.50;;
45039;SDS011;30778;53.574;7.770;2022-12-04T05:08:30;41.88;;;16.83;;
45039;SDS011;30778;53.574;7.770;2022-12-04T05:10:57;47.88;;;17.75;;
45039;SDS011;30778;53.574;7.770;2022-12-04T05:13:22;37.90;;;14.98;;
45039;SDS011;30778;53.574;7.770;2022-12-04T05:15:57;45.15;;;17.50;;
45039;SDS011;30778;53.574;7.770;2022-12-04T05:18:27;41.65;;;16.10;;
45039;SDS011;30778;53.574;7.770;2022-12-04T05:20:53;41.53;;;13.90;;
45039;SDS011;30778;53.574;7.770;2022-12-04T05:23:18;41.03;;;15.27;;
45039;SDS011;30778;53.574;7.770;2022-12-04T05:25:44;38.97;;;14.70;;
45039;SDS011;30778;53.574;7.770;2022-12-04T05:28:10;40.85;;;14.82;;
45039;SDS011;30778;53.574;7.770;2022-12-04T05:30:36;40.60;;;15.57;;
45039;SDS011;30778;53.574;7.770;2022-12-04T05:33:02;42.60;;;16.23;;
45039;SDS011;30778;53.574;7.770;2022-12-04T05:35:28;36.75;;;14.32;;
45039;SDS011;30778;53.574;7.770;2022-12-04T05:37:54;36.90;;;16.00;;
45039;SDS011;30778;53.574;7.770;2022-12-04T05:40:19;34.25;;;14.07;;
45039;SDS011;30778;53.574;7.770;2022-12-04T05:42:45;39.35;;;13.70;;
45039;SDS011;30778;53.574;7.770;2022-12-04T05:45:11;38.60;;;15.73;;
45039;SDS011;30778;53.574;7.770;2022-12-04T05:47:40;41.42;;;14.95;;
45039;SDS011;30778;53.574;7.770;2022-12-04T05:50:06;42.05;;;17.45;;
45039;SDS011;30778;53.574;7.770;2022-12-04T05:52:33;36.88;;;15.10;;
45039;SDS011;30778;53.574;7.770;2022-12-04T05:54:59;36.88;;;14.93;;
45039;SDS011;30778;53.574;7.770;2022-12-04T05:57:25;31.50;;;13.07;;
45039;SDS011;30778;53.574;7.770;2022-12-04T05:59:51;35.97;;;13.60;;
45039;SDS011;30778;53.574;7.770;2022-12-04T06:02:16;45.83;;;17.08;;
45039;SDS011;30778;53.574;7.770;2022-12-04T06:04:42;34.60;;;14.82;;
45039;SDS011;30778;53.574;7.770;2022-12-04T06:07:08;35.33;;;14.00;;
45039;SDS011;30778;53.574;7.770;2022-12-04T06:09:34;32.83;;;14.30;;
45039;SDS011;30778;53.574;7.770;2022-12-04T06:12:00;38.95;;;14.77;;
45039;SDS011;30778;53.574;7.770;2022-12-04T06:14:26;44.88;;;15.88;;
45039;SDS011;30778;53.574;7.770;2022-12-04T06:16:53;32.53;;;15.25;;
45039;SDS011;30778;53.574;7.770;2022-12-04T06:19:19;41.20;;;16.30;;
45039;SDS011;30778;53.574;7.770;2022-12-04T06:21:47;38.25;;;13.20;;
45039;SDS011;30778;53.574;7.770;2022-12-04T06:24:16;41.20;;;17.20;;
45039;SDS011;30778;53.574;7.770;2022-12-04T06:26:46;32.87;;;13.53;;
45039;SDS011;30778;53.574;7.770;2022-12-04T06:29:13;34.97;;;14.65;;
45039;SDS011;30778;53.574;7.770;2022-12-04T06:31:39;32.35;;;13.32;;
45039;SDS011;30778;53.574;7.770;2022-12-04T06:34:06;34.88;;;15.70;;
45039;SDS011;30778;53.574;7.770;2022-12-04T06:36:32;34.30;;;15.68;;
45039;SDS011;30778;53.574;7.770;2022-12-04T06:38:59;35.15;;;13.77;;
45039;SDS011;30778;53.574;7.770;2022-12-04T06:41:24;33.00;;;13.05;;
45039;SDS011;30778;53.574;7.770;2022-12-04T06:43:51;34.05;;;13.70;;
45039;SDS011;30778;53.574;7.770;2022-12-04T06:46:21;39.20;;;15.90;;
45039;SDS011;30778;53.574;7.770;2022-12-04T06:48:57;33.63;;;13.55;;
45039;SDS011;30778;53.574;7.770;2022-12-04T06:51:34;37.17;;;14.98;;
45039;SDS011;30778;53.574;7.770;2022-12-04T06:54:01;32.05;;;14.50;;
45039;SDS011;30778;53.574;7.770;2022-12-04T06:56:28;34.53;;;13.63;;
45039;SDS011;30778;53.574;7.770;2022-12-04T06:58:56;43.13;;;14.40;;
45039;SDS011;30778;53.574;7.770;2022-12-04T07:01:25;33.58;;;12.93;;
45039;SDS011;30778;53.574;7.770;2022-12-04T07:03:52;35.97;;;13.10;;
45039;SDS011;30778;53.574;7.770;2022-12-04T07:06:29;32.05;;;13.15;;
45039;SDS011;30778;53.574;7.770;2022-12-04T07:08:57;34.60;;;15.20;;
45039;SDS011;30778;53.574;7.770;2022-12-04T07:11:24;33.60;;;14.23;;
45039;SDS011;30778;53.574;7.770;2022-12-04T07:13:50;39.00;;;14.23;;
45039;SDS011;30778;53.574;7.770;2022-12-04T07:16:17;35.40;;;14.05;;
45039;SDS011;30778;53.574;7.770;2022-12-04T07:18:45;33.17;;;12.73;;
45039;SDS011;30778;53.574;7.770;2022-12-04T07:21:18;33.33;;;13.30;;
45039;SDS011;30778;53.574;7.770;2022-12-04T07:23:49;37.35;;;14.68;;
45039;SDS011;30778;53.574;7.770;2022-12-04T07:26:21;36.75;;;14.13;;
45039;SDS011;30778;53.574;7.770;2022-12-04T07:28:47;33.28;;;13.38;;
45039;SDS011;30778;53.574;7.770;2022-12-04T07:31:15;35.40;;;13.15;;
45039;SDS011;30778;53.574;7.770;2022-12-04T07:33:43;33.15;;;13.30;;
45039;SDS011;30778;53.574;7.770;2022-12-04T07:36:13;38.20;;;15.05;;
45039;SDS011;30778;53.574;7.770;2022-12-04T07:38:41;31.43;;;13.17;;
45039;SDS011;30778;53.574;7.770;2022-12-04T07:41:07;36.33;;;14.27;;
45039;SDS011;30778;53.574;7.770;2022-12-04T07:43:35;34.35;;;14.43;;
45039;SDS011;30778;53.574;7.770;2022-12-04T07:46:05;33.83;;;12.90;;
45039;SDS011;30778;53.574;7.770;2022-12-04T07:48:41;34.45;;;13.35;;
45039;SDS011;30778;53.574;7.770;2022-12-04T07:51:11;35.05;;;13.90;;
45039;SDS011;30778;53.574;7.770;2022-12-04T07:53:41;40.55;;;14.13;;
45039;SDS011;30778;53.574;7.770;2022-12-04T07:56:07;31.05;;;12.95;;
45039;SDS011;30778;53.574;7.770;2022-12-04T07:58:34;31.85;;;13.43;;
45039;SDS011;30778;53.574;7.770;2022-12-04T08:01:10;31.48;;;13.25;;
45039;SDS011;30778;53.574;7.770;2022-12-04T08:03:40;30.73;;;12.88;;
45039;SDS011;30778;53.574;7.770;2022-12-04T08:06:07;36.45;;;14.85;;
45039;SDS011;30778;53.574;7.770;2022-12-04T08:08:33;34.92;;;13.05;;
45039;SDS011;30778;53.574;7.770;2022-12-04T08:10:59;37.40;;;13.40;;
45039;SDS011;30778;53.574;7.770;2022-12-04T08:13:25;34.47;;;12.27;;
45039;SDS011;30778;53.574;7.770;2022-12-04T08:15:50;29.95;;;11.57;;
45039;SDS011;30778;53.574;7.770;2022-12-04T08:18:16;29.98;;;12.27;;
45039;SDS011;30778;53.574;7.770;2022-12-04T08:20:42;29.15;;;13.85;;
45039;SDS011;30778;53.574;7.770;2022-12-04T08:23:08;32.53;;;13.60;;
45039;SDS011;30778;53.574;7.770;2022-12-04T08:25:33;31.13;;;13.05;;
45039;SDS011;30778;53.574;7.770;2022-12-04T08:28:02;30.40;;;13.00;;
45039;SDS011;30778;53.574;7.770;2022-12-04T08:30:28;27.88;;;12.38;;
45039;SDS011;30778;53.574;7.770;2022-12-04T08:32:53;27.50;;;11.18;;
45039;SDS011;30778;53.574;7.770;2022-12-04T08:35:19;23.20;;;11.38;;
45039;SDS011;30778;53.574;7.770;2022-12-04T08:37:44;31.02;;;11.60;;
45039;SDS011;30778;53.574;7.770;2022-12-04T08:40:10;26.95;;;11.88;;
45039;SDS011;30778;53.574;7.770;2022-12-04T08:42:36;25.55;;;11.55;;
45039;SDS011;30778;53.574;7.770;2022-12-04T08:45:02;24.25;;;11.30;;
45039;SDS011;30778;53.574;7.770;2022-12-04T08:47:27;33.20;;;13.20;;
45039;SDS011;30778;53.574;7.770;2022-12-04T08:49:53;30.85;;;12.27;;
45039;SDS011;30778;53.574;7.770;2022-12-04T08:52:18;30.98;;;11.77;;
45039;SDS011;30778;53.574;7.770;2022-12-04T08:54:43;33.90;;;13.20;;
45039;SDS011;30778;53.574;7.770;2022-12-04T08:57:09;30.35;;;13.45;;
45039;SDS011;30778;53.574;7.770;2022-12-04T08:59:34;25.35;;;10.98;;
45039;SDS011;30778;53.574;7.770;2022-12-04T09:02:00;26.42;;;12.82;;
45039;SDS011;30778;53.574;7.770;2022-12-04T09:04:25;25.60;;;10.85;;
45039;SDS011;30778;53.574;7.770;2022-12-04T09:06:51;30.02;;;11.82;;
45039;SDS011;30778;53.574;7.770;2022-12-04T09:09:16;29.60;;;10.50;;
45039;SDS011;30778;53.574;7.770;2022-12-04T09:11:44;21.77;;;10.05;;
45039;SDS011;30778;53.574;7.770;2022-12-04T09:14:10;26.17;;;10.93;;
45039;SDS011;30778;53.574;7.770;2022-12-04T09:16:35;24.80;;;9.40;;
45039;SDS011;30778;53.574;7.770;2022-12-04T09:19:00;27.48;;;10.35;;
45039;SDS011;30778;53.574;7.770;2022-12-04T09:21:26;33.22;;;12.30;;
45039;SDS011;30778;53.574;7.770;2022-12-04T09:23:51;31.23;;;11.75;;
45039;SDS011;30778;53.574;7.770;2022-12-04T09:28:53;25.85;;;9.90;;
45039;SDS011;30778;53.574;7.770;2022-12-04T09:31:20;26.02;;;9.60;;
45039;SDS011;30778;53.574;7.770;2022-12-04T09:33:46;29.73;;;11.25;;
45039;SDS011;30778;53.574;7.770;2022-12-04T09:36:12;25.65;;;10.35;;
45039;SDS011;30778;53.574;7.770;2022-12-04T09:38:43;23.77;;;11.35;;
45039;SDS011;30778;53.574;7.770;2022-12-04T09:46:35;29.10;;;10.73;;
45039;SDS011;30778;53.574;7.770;2022-12-04T09:49:16;26.48;;;9.70;;
45039;SDS011;30778;53.574;7.770;2022-12-04T09:54:17;24.02;;;9.40;;
45039;SDS011;30778;53.574;7.770;2022-12-04T09:56:51;29.75;;;11.35;;
45039;SDS011;30778;53.574;7.770;2022-12-04T09:59:20;28.98;;;11.18;;
45039;SDS011;30778;53.574;7.770;2022-12-04T10:01:55;24.63;;;10.25;;
45039;SDS011;30778;53.574;7.770;2022-12-04T10:04:26;21.60;;;9.38;;
45039;SDS011;30778;53.574;7.770;2022-12-04T10:06:54;27.33;;;11.68;;
45039;SDS011;30778;53.574;7.770;2022-12-04T10:14:28;31.77;;;11.82;;
45039;SDS011;30778;53.574;7.770;2022-12-04T10:25:24;29.13;;;10.90;;
45039;SDS011;30778;53.574;7.770;2022-12-04T10:27:55;29.45;;;11.65;;
45039;SDS011;30778;53.574;7.770;2022-12-04T10:30:26;24.42;;;11.38;;
45039;SDS011;30778;53.574;7.770;2022-12-04T10:33:10;28.75;;;12.48;;
45039;SDS011;30778;53.574;7.770;2022-12-04T10:35:42;27.77;;;9.98;;
45039;SDS011;30778;53.574;7.770;2022-12-04T10:38:54;26.02;;;11.15;;
45039;SDS011;30778;53.574;7.770;2022-12-04T10:41:19;24.45;;;12.25;;
45039;SDS011;30778;53.574;7.770;2022-12-04T10:43:51;35.13;;;12.60;;
45039;SDS011;30778;53.574;7.770;2022-12-04T10:46:19;27.42;;;10.90;;
45039;SDS011;30778;53.574;7.770;2022-12-04T10:48:51;29.05;;;11.68;;
45039;SDS011;30778;53.574;7.770;2022-12-04T10:51:20;24.85;;;12.02;;
45039;SDS011;30778;53.574;7.770;2022-12-04T10:53:47;30.58;;;11.55;;
45039;SDS011;30778;53.574;7.770;2022-12-04T10:56:15;23.63;;;11.95;;
45039;SDS011;30778;53.574;7.770;2022-12-04T10:58:43;28.50;;;11.23;;
45039;SDS011;30778;53.574;7.770;2022-12-04T11:01:19;26.92;;;9.98;;
45039;SDS011;30778;53.574;7.770;2022-12-04T11:03:45;25.08;;;10.77;;
45039;SDS011;30778;53.574;7.770;2022-12-04T11:06:30;27.88;;;11.07;;
45039;SDS011;30778;53.574;7.770;2022-12-04T11:08:56;26.48;;;10.88;;
45039;SDS011;30778;53.574;7.770;2022-12-04T11:11:30;36.53;;;12.35;;
45039;SDS011;30778;53.574;7.770;2022-12-04T11:14:01;33.55;;;12.75;;
45039;SDS011;30778;53.574;7.770;2022-12-04T11:16:37;30.48;;;11.63;;
45039;SDS011;30778;53.574;7.770;2022-12-04T11:19:22;23.98;;;10.65;;
45039;SDS011;30778;53.574;7.770;2022-12-04T11:21:51;29.42;;;11.20;;
45039;SDS011;30778;53.574;7.770;2022-12-04T11:24:20;26.83;;;11.38;;
45039;SDS011;30778;53.574;7.770;2022-12-04T11:26:52;29.98;;;11.60;;
45039;SDS011;30778;53.574;7.770;2022-12-04T11:29:20;29.27;;;12.45;;
45039;SDS011;30778;53.574;7.770;2022-12-04T11:31:54;32.92;;;12.32;;
45039;SDS011;30778;53.574;7.770;2022-12-04T11:34:21;26.60;;;11.68;;
45039;SDS011;30778;53.574;7.770;2022-12-04T11:36:54;27.08;;;11.05;;
45039;SDS011;30778;53.574;7.770;2022-12-04T11:39:29;31.88;;;13.60;;
45039;SDS011;30778;53.574;7.770;2022-12-04T11:42:44;34.45;;;13.77;;
45039;SDS011;30778;53.574;7.770;2022-12-04T11:44:55;34.80;;;12.93;;
45039;SDS011;30778;53.574;7.770;2022-12-04T11:47:51;33.17;;;12.80;;
45039;SDS011;30778;53.574;7.770;2022-12-04T11:50:23;31.77;;;12.25;;
45039;SDS011;30778;53.574;7.770;2022-12-04T11:52:58;30.45;;;11.93;;
45039;SDS011;30778;53.574;7.770;2022-12-04T12:00:25;31.23;;;12.85;;
45039;SDS011;30778;53.574;7.770;2022-12-04T12:08:23;25.73;;;12.27;;
45039;SDS011;30778;53.574;7.770;2022-12-04T12:11:19;29.63;;;12.77;;
45039;SDS011;30778;53.574;7.770;2022-12-04T12:24:23;31.70;;;13.00;;
45039;SDS011;30778;53.574;7.770;2022-12-04T12:27:06;28.92;;;12.30;;
45039;SDS011;30778;53.574;7.770;2022-12-04T12:35:20;29.85;;;11.10;;
45039;SDS011;30778;53.574;7.770;2022-12-04T12:37:51;28.00;;;12.38;;
45039;SDS011;30778;53.574;7.770;2022-12-04T12:40:25;30.17;;;12.35;;
45039;SDS011;30778;53.574;7.770;2022-12-04T12:42:54;23.92;;;10.05;;
45039;SDS011;30778;53.574;7.770;2022-12-04T12:48:48;26.60;;;10.13;;
45039;SDS011;30778;53.574;7.770;2022-12-04T12:53:37;24.25;;;11.07;;
45039;SDS011;30778;53.574;7.770;2022-12-04T12:56:07;32.47;;;13.60;;
45039;SDS011;30778;53.574;7.770;2022-12-04T13:01:17;29.60;;;12.63;;
45039;SDS011;30778;53.574;7.770;2022-12-04T13:11:49;22.80;;;10.30;;
45039;SDS011;30778;53.574;7.770;2022-12-04T13:14:18;25.48;;;11.73;;
45039;SDS011;30778;53.574;7.770;2022-12-04T13:19:17;27.70;;;10.95;;
45039;SDS011;30778;53.574;7.770;2022-12-04T13:21:54;28.42;;;11.20;;
45039;SDS011;30778;53.574;7.770;2022-12-04T13:24:39;28.48;;;12.02;;
45039;SDS011;30778;53.574;7.770;2022-12-04T13:27:28;30.90;;;12.35;;
45039;SDS011;30778;53.574;7.770;2022-12-04T13:30:15;29.50;;;12.55;;
45039;SDS011;30778;53.574;7.770;2022-12-04T13:41:01;25.73;;;11.07;;
45039;SDS011;30778;53.574;7.770;2022-12-04T13:46:51;32.08;;;14.05;;
45039;SDS011;30778;53.574;7.770;2022-12-04T13:50:04;27.73;;;11.55;;
45039;SDS011;30778;53.574;7.770;2022-12-04T13:52:05;29.30;;;14.15;;
45039;SDS011;30778;53.574;7.770;2022-12-04T13:54:57;35.13;;;14.52;;
45039;SDS011;30778;53.574;7.770;2022-12-04T13:57:24;41.20;;;14.43;;
45039;SDS011;30778;53.574;7.770;2022-12-04T14:00:00;32.30;;;13.52;;
45039;SDS011;30778;53.574;7.770;2022-12-04T14:02:37;35.70;;;14.40;;
45039;SDS011;30778;53.574;7.770;2022-12-04T14:05:11;36.58;;;13.57;;
45039;SDS011;30778;53.574;7.770;2022-12-04T14:07:39;30.25;;;13.93;;
45039;SDS011;30778;53.574;7.770;2022-12-04T14:12:41;30.23;;;14.02;;
45039;SDS011;30778;53.574;7.770;2022-12-04T14:17:55;30.67;;;12.23;;
45039;SDS011;30778;53.574;7.770;2022-12-04T14:20:24;35.78;;;13.60;;
45039;SDS011;30778;53.574;7.770;2022-12-04T14:22:52;32.47;;;14.65;;
45039;SDS011;30778;53.574;7.770;2022-12-04T14:27:44;35.63;;;14.43;;
45039;SDS011;30778;53.574;7.770;2022-12-04T14:30:35;32.20;;;13.73;;
45039;SDS011;30778;53.574;7.770;2022-12-04T14:33:14;34.15;;;14.90;;
45039;SDS011;30778;53.574;7.770;2022-12-04T14:35:46;32.07;;;13.50;;
45039;SDS011;30778;53.574;7.770;2022-12-04T14:38:15;28.70;;;12.57;;
45039;SDS011;30778;53.574;7.770;2022-12-04T14:40:45;29.00;;;13.50;;
45039;SDS011;30778;53.574;7.770;2022-12-04T14:43:18;31.00;;;12.75;;
45039;SDS011;30778;53.574;7.770;2022-12-04T14:51:13;26.65;;;12.75;;
45039;SDS011;30778;53.574;7.770;2022-12-04T14:59:15;43.75;;;17.75;;
45039;SDS011;30778;53.574;7.770;2022-12-04T15:01:44;28.77;;;14.35;;
45039;SDS011;30778;53.574;7.770;2022-12-04T15:04:28;32.25;;;14.65;;
45039;SDS011;30778;53.574;7.770;2022-12-04T15:06:56;31.33;;;13.65;;
45039;SDS011;30778;53.574;7.770;2022-12-04T15:09:23;27.05;;;12.88;;
45039;SDS011;30778;53.574;7.770;2022-12-04T15:12:18;29.83;;;14.27;;
45039;SDS011;30778;53.574;7.770;2022-12-04T15:14:57;23.33;;;10.75;;
45039;SDS011;30778;53.574;7.770;2022-12-04T15:17:37;30.70;;;14.00;;
45039;SDS011;30778;53.574;7.770;2022-12-04T15:20:16;31.88;;;12.98;;
45039;SDS011;30778;53.574;7.770;2022-12-04T15:22:43;24.15;;;11.23;;
45039;SDS011;30778;53.574;7.770;2022-12-04T15:25:13;30.08;;;13.50;;
45039;SDS011;30778;53.574;7.770;2022-12-04T15:27:45;34.58;;;12.75;;
45039;SDS011;30778;53.574;7.770;2022-12-04T15:30:17;22.55;;;10.75;;
45039;SDS011;30778;53.574;7.770;2022-12-04T15:32:45;25.13;;;11.05;;
45039;SDS011;30778;53.574;7.770;2022-12-04T15:35:35;28.50;;;12.27;;
45039;SDS011;30778;53.574;7.770;2022-12-04T15:38:01;25.08;;;11.43;;
45039;SDS011;30778;53.574;7.770;2022-12-04T15:40:28;29.35;;;11.48;;
45039;SDS011;30778;53.574;7.770;2022-12-04T15:43:05;24.42;;;11.52;;
45039;SDS011;30778;53.574;7.770;2022-12-04T15:45:37;22.90;;;11.38;;
45039;SDS011;30778;53.574;7.770;2022-12-04T15:48:03;26.05;;;10.88;;
45039;SDS011;30778;53.574;7.770;2022-12-04T15:50:28;27.98;;;11.98;;
45039;SDS011;30778;53.574;7.770;2022-12-04T15:55:24;23.65;;;10.35;;
45039;SDS011;30778;53.574;7.770;2022-12-04T15:57:55;23.13;;;10.77;;
45039;SDS011;30778;53.574;7.770;2022-12-04T16:02:57;23.92;;;11.05;;
45039;SDS011;30778;53.574;7.770;2022-12-04T16:07:53;22.15;;;9.63;;
45039;SDS011;30778;53.574;7.770;2022-12-04T16:10:28;24.70;;;11.10;;
45039;SDS011;30778;53.574;7.770;2022-12-04T16:12:56;24.02;;;10.77;;
45039;SDS011;30778;53.574;7.770;2022-12-04T16:15:23;26.65;;;9.85;;
45039;SDS011;30778;53.574;7.770;2022-12-04T16:17:51;21.40;;;10.55;;
45039;SDS011;30778;53.574;7.770;2022-12-04T16:20:17;25.10;;;10.30;;
45039;SDS011;30778;53.574;7.770;2022-12-04T16:22:44;24.63;;;11.27;;
45039;SDS011;30778;53.574;7.770;2022-12-04T16:25:12;17.95;;;9.10;;
45039;SDS011;30778;53.574;7.770;2022-12-04T16:27:38;27.10;;;11.52;;
45039;SDS011;30778;53.574;7.770;2022-12-04T16:30:04;23.27;;;10.82;;
45039;SDS011;30778;53.574;7.770;2022-12-04T16:32:30;26.15;;;10.98;;
45039;SDS011;30778;53.574;7.770;2022-12-04T16:34:57;28.17;;;11.55;;
45039;SDS011;30778;53.574;7.770;2022-12-04T16:37:24;22.20;;;9.65;;
45039;SDS011;30778;53.574;7.770;2022-12-04T16:39:51;28.13;;;12.65;;
45039;SDS011;30778;53.574;7.770;2022-12-04T16:42:18;44.75;;;17.67;;
45039;SDS011;30778;53.574;7.770;2022-12-04T16:44:47;36.85;;;14.73;;
45039;SDS011;30778;53.574;7.770;2022-12-04T16:47:13;26.08;;;12.35;;
45039;SDS011;30778;53.574;7.770;2022-12-04T16:49:39;25.90;;;11.18;;
45039;SDS011;30778;53.574;7.770;2022-12-04T16:52:05;28.10;;;11.95;;
45039;SDS011;30778;53.574;7.770;2022-12-04T16:54:31;27.17;;;11.05;;
45039;SDS011;30778;53.574;7.770;2022-12-04T16:56:56;25.38;;;10.55;;